createdAt,value
2022-10-15T00:01:14.187Z,9.60
2022-10-15T00:03:44.965Z,9.60
2022-10-15T00:06:18.941Z,9.70
2022-10-15T00:08:48.485Z,9.70
2022-10-15T00:11:21.057Z,9.70
2022-10-15T00:13:50.977Z,9.80
2022-10-15T00:16:23.695Z,9.80
2022-10-15T00:18:53.552Z,9.70
2022-10-15T00:21:22.994Z,9.80
2022-10-15T00:23:52.785Z,9.70
2022-10-15T00:26:24.159Z,9.80
2022-10-15T00:28:54.670Z,9.80
2022-10-15T00:31:27.421Z,9.80
2022-10-15T00:33:58.143Z,9.80
2022-10-15T00:36:30.166Z,9.90
2022-10-15T00:38:59.401Z,9.80
2022-10-15T00:41:32.877Z,9.80
2022-10-15T00:44:03.656Z,9.80
2022-10-15T00:46:38.153Z,9.80
2022-10-15T00:49:13.699Z,9.80
2022-10-15T00:51:47.629Z,9.80
2022-10-15T00:54:17.926Z,9.80
2022-10-15T00:56:47.803Z,9.90
2022-10-15T00:59:22.056Z,9.90
2022-10-15T01:01:53.341Z,9.80
2022-10-15T01:04:22.679Z,9.80
2022-10-15T01:06:51.654Z,9.80
2022-10-15T01:09:21.859Z,9.80
2022-10-15T01:11:52.863Z,9.70
2022-10-15T01:14:33.257Z,9.80
2022-10-15T01:17:09.823Z,9.80
2022-10-15T01:20:06.116Z,9.70
2022-10-15T01:22:49.562Z,9.60
2022-10-15T01:25:33.818Z,9.70
2022-10-15T01:28:11.541Z,9.60
2022-10-15T01:30:46.727Z,9.60
2022-10-15T01:33:36.748Z,9.60
2022-10-15T01:36:17.279Z,9.60
2022-10-15T01:38:54.108Z,9.50
2022-10-15T01:41:30.619Z,9.50
2022-10-15T01:44:03.627Z,9.40
2022-10-15T01:46:39.070Z,9.40
2022-10-15T01:49:11.607Z,9.30
2022-10-15T01:51:42.992Z,9.20
2022-10-15T01:54:16.507Z,9.10
2022-10-15T01:56:50.133Z,9.10
2022-10-15T01:59:22.621Z,9.00
2022-10-15T02:01:55.011Z,9.00
2022-10-15T02:04:29.216Z,9.00
2022-10-15T02:07:04.156Z,9.00
2022-10-15T02:09:43.104Z,9.00
2022-10-15T02:12:25.720Z,8.90
2022-10-15T02:15:02.004Z,8.80
2022-10-15T02:17:37.686Z,8.70
2022-10-15T02:20:13.746Z,8.60
2022-10-15T02:22:50.890Z,8.40
2022-10-15T02:25:24.296Z,8.30
2022-10-15T02:27:55.795Z,8.20
2022-10-15T02:30:26.123Z,8.10
2022-10-15T02:32:59.968Z,8.10
2022-10-15T02:35:30.104Z,8.10
2022-10-15T02:38:04.467Z,8.00
2022-10-15T02:40:38.116Z,8.00
2022-10-15T02:43:10.485Z,7.90
2022-10-15T02:45:40.158Z,7.80
2022-10-15T02:48:11.085Z,7.80
2022-10-15T02:50:40.462Z,7.60
2022-10-15T02:53:10.723Z,7.60
2022-10-15T02:55:41.444Z,7.60
2022-10-15T02:58:10.674Z,7.50
2022-10-15T03:00:40.230Z,7.50
2022-10-15T03:03:11.157Z,7.50
2022-10-15T03:05:40.632Z,7.50
2022-10-15T03:08:09.802Z,7.50
2022-10-15T03:10:38.927Z,7.60
2022-10-15T03:13:08.841Z,7.50
2022-10-15T03:15:42.174Z,7.50
2022-10-15T03:18:13.049Z,7.30
2022-10-15T03:20:42.500Z,7.20
2022-10-15T03:23:11.649Z,7.10
2022-10-15T03:25:40.672Z,7.10
2022-10-15T03:28:09.927Z,7.00
2022-10-15T03:30:40.608Z,6.90
2022-10-15T03:33:09.863Z,6.80
2022-10-15T03:35:41.379Z,6.70
2022-10-15T03:38:10.880Z,6.60
2022-10-15T03:40:40.740Z,6.60
2022-10-15T03:43:10.029Z,6.60
2022-10-15T03:45:40.330Z,6.50
2022-10-15T03:48:10.099Z,6.50
2022-10-15T03:50:40.596Z,6.40
2022-10-15T03:53:09.713Z,6.40
2022-10-15T03:55:39.840Z,6.30
2022-10-15T03:58:09.310Z,6.20
2022-10-15T04:00:39.815Z,6.10
2022-10-15T04:03:08.888Z,6.10
2022-10-15T04:05:38.350Z,6.00
2022-10-15T04:08:10.029Z,5.90
2022-10-15T04:10:39.184Z,5.90
2022-10-15T04:13:08.332Z,5.80
2022-10-15T04:15:40.351Z,5.80
2022-10-15T04:18:09.379Z,5.80
2022-10-15T04:20:38.529Z,5.70
2022-10-15T04:23:09.168Z,5.70
2022-10-15T04:25:38.929Z,5.70
2022-10-15T04:28:08.192Z,5.60
2022-10-15T04:30:37.831Z,5.50
2022-10-15T04:33:06.991Z,5.50
2022-10-15T04:35:36.611Z,5.40
2022-10-15T04:38:05.729Z,5.30
2022-10-15T04:40:38.038Z,5.30
2022-10-15T04:43:08.078Z,5.20
2022-10-15T04:45:38.207Z,5.10
2022-10-15T04:48:07.649Z,5.10
2022-10-15T04:50:36.628Z,5.10
2022-10-15T04:53:06.405Z,5.10
2022-10-15T04:55:36.908Z,5.10
2022-10-15T04:58:05.988Z,5.00
2022-10-15T05:00:35.117Z,5.00
2022-10-15T05:03:04.265Z,5.00
2022-10-15T05:05:33.351Z,5.00
2022-10-15T05:08:03.086Z,4.90
2022-10-15T05:10:32.112Z,4.80
2022-10-15T05:13:04.043Z,4.70
2022-10-15T05:15:33.221Z,4.70
2022-10-15T05:18:02.325Z,4.70
2022-10-15T05:20:31.280Z,4.60
2022-10-15T05:23:01.162Z,4.60
2022-10-15T05:25:31.741Z,4.70
2022-10-15T05:28:02.527Z,4.70
2022-10-15T05:30:31.548Z,4.70
2022-10-15T05:33:00.761Z,4.80
2022-10-15T05:35:29.647Z,4.80
2022-10-15T05:37:58.656Z,4.90
2022-10-15T05:40:28.688Z,5.00
2022-10-15T05:42:57.971Z,5.00
2022-10-15T05:45:28.380Z,5.10
2022-10-15T05:47:57.828Z,5.10
2022-10-15T05:50:26.795Z,5.10
2022-10-15T05:52:56.886Z,5.10
2022-10-15T05:55:26.728Z,5.20
2022-10-15T05:57:56.225Z,5.20
2022-10-15T06:00:25.315Z,5.30
2022-10-15T06:02:56.741Z,5.40
2022-10-15T06:05:27.360Z,5.50
2022-10-15T06:07:58.226Z,5.60
2022-10-15T06:10:29.657Z,5.60
2022-10-15T06:12:59.197Z,5.70
2022-10-15T06:15:28.353Z,5.80
2022-10-15T06:17:58.877Z,6.00
2022-10-15T06:20:28.390Z,6.00
2022-10-15T06:23:01.056Z,6.10
2022-10-15T06:25:30.599Z,6.30
2022-10-15T06:28:03.471Z,6.40
2022-10-15T06:30:32.766Z,6.60
2022-10-15T06:33:03.532Z,6.90
2022-10-15T06:35:34.637Z,7.00
2022-10-15T06:38:04.168Z,7.10
2022-10-15T06:40:33.850Z,7.30
2022-10-15T06:43:09.591Z,7.40
2022-10-15T06:45:41.454Z,7.60
2022-10-15T06:48:12.271Z,7.70
2022-10-15T06:50:41.837Z,7.90
2022-10-15T06:53:10.946Z,8.00
2022-10-15T06:55:40.695Z,8.20
2022-10-15T06:58:09.688Z,8.30
2022-10-15T07:00:42.097Z,8.40
2022-10-15T07:03:12.588Z,8.50
2022-10-15T07:05:41.687Z,8.70
2022-10-15T07:08:13.140Z,8.90
2022-10-15T07:10:44.786Z,9.00
2022-10-15T07:13:15.076Z,9.20
2022-10-15T07:15:45.050Z,9.40
2022-10-15T07:18:16.399Z,9.50
2022-10-15T07:20:46.405Z,9.80
2022-10-15T07:23:15.533Z,10.10
2022-10-15T07:25:45.353Z,10.30
2022-10-15T07:28:14.430Z,10.50
2022-10-15T07:30:43.568Z,10.70
2022-10-15T07:33:12.526Z,10.90
2022-10-15T07:35:43.038Z,11.10
2022-10-15T07:38:12.156Z,11.20
2022-10-15T07:40:41.183Z,11.50
2022-10-15T07:43:10.256Z,11.80
2022-10-15T07:45:40.135Z,12.00
2022-10-15T07:48:09.245Z,12.10
2022-10-15T07:50:40.424Z,12.20
2022-10-15T07:53:12.806Z,12.20
2022-10-15T07:55:41.980Z,12.10
2022-10-15T07:58:10.941Z,12.20
2022-10-15T08:00:40.003Z,12.20
2022-10-15T08:03:09.125Z,12.10
2022-10-15T08:05:38.485Z,12.10
2022-10-15T08:08:07.992Z,12.20
2022-10-15T08:10:39.605Z,12.20
2022-10-15T08:13:08.723Z,12.40
2022-10-15T08:15:41.344Z,12.40
2022-10-15T08:18:11.472Z,12.50
2022-10-15T08:20:40.643Z,12.60
2022-10-15T08:23:17.100Z,12.70
2022-10-15T08:25:47.755Z,12.80
2022-10-15T08:28:16.857Z,13.00
2022-10-15T08:30:47.023Z,13.10
2022-10-15T08:33:16.337Z,13.20
2022-10-15T08:35:45.705Z,13.20
2022-10-15T08:38:19.741Z,13.30
2022-10-15T08:40:51.774Z,13.20
2022-10-15T08:43:25.505Z,13.40
2022-10-15T08:45:59.495Z,13.40
2022-10-15T08:48:34.244Z,13.50
2022-10-15T08:51:07.997Z,13.60
2022-10-15T08:53:41.565Z,13.70
2022-10-15T08:56:17.730Z,13.80
2022-10-15T08:58:53.541Z,13.90
2022-10-15T09:01:31.962Z,14.00
2022-10-15T09:04:11.193Z,14.10
2022-10-15T09:06:41.363Z,14.10
2022-10-15T09:09:20.423Z,14.10
2022-10-15T09:12:01.071Z,14.20
2022-10-15T09:14:33.130Z,14.30
2022-10-15T09:17:08.066Z,14.50
2022-10-15T09:19:40.331Z,14.40
2022-10-15T09:22:16.631Z,14.50
2022-10-15T09:24:51.367Z,14.60
2022-10-15T09:27:32.893Z,14.60
2022-10-15T09:30:07.710Z,14.70
2022-10-15T09:32:42.307Z,14.80
2022-10-15T09:35:19.353Z,14.80
2022-10-15T09:37:54.499Z,14.90
2022-10-15T09:40:37.494Z,14.90
2022-10-15T09:43:08.946Z,14.90
2022-10-15T09:45:38.042Z,14.90
2022-10-15T09:48:16.879Z,15.00
2022-10-15T09:50:51.077Z,15.20
2022-10-15T09:53:28.240Z,15.30
2022-10-15T09:56:07.285Z,15.50
2022-10-15T09:58:43.255Z,15.60
2022-10-15T10:01:20.681Z,15.40
2022-10-15T10:03:55.259Z,15.50
2022-10-15T10:06:26.405Z,15.50
2022-10-15T10:08:58.159Z,15.60
2022-10-15T10:11:28.878Z,15.70
2022-10-15T10:14:01.877Z,15.80
2022-10-15T10:16:33.328Z,15.90
2022-10-15T10:19:13.289Z,16.00
2022-10-15T10:21:43.749Z,15.90
2022-10-15T10:24:30.908Z,16.00
2022-10-15T10:27:00.974Z,16.20
2022-10-15T10:29:35.321Z,16.00
2022-10-15T10:32:13.915Z,16.20
2022-10-15T10:34:50.166Z,16.20
2022-10-15T10:37:22.391Z,16.30
2022-10-15T10:39:55.978Z,16.30
2022-10-15T10:42:35.401Z,16.30
2022-10-15T10:45:23.478Z,16.40
2022-10-15T10:47:53.977Z,16.50
2022-10-15T10:50:33.184Z,16.40
2022-10-15T10:53:22.159Z,16.60
2022-10-15T10:55:52.899Z,16.60
2022-10-15T10:58:27.010Z,16.70
2022-10-15T11:01:00.043Z,16.70
2022-10-15T11:03:36.363Z,16.80
2022-10-15T11:06:40.181Z,16.80
2022-10-15T11:09:32.483Z,16.90
2022-10-15T11:12:16.318Z,16.80
2022-10-15T11:14:53.900Z,16.80
2022-10-15T11:17:34.081Z,16.90
2022-10-15T11:20:29.250Z,17.00
2022-10-15T11:23:08.344Z,17.10
2022-10-15T11:25:47.345Z,17.10
2022-10-15T11:28:32.409Z,17.20
2022-10-15T11:31:13.421Z,17.30
2022-10-15T11:34:00.457Z,17.30
2022-10-15T11:36:47.334Z,17.40
2022-10-15T11:39:31.463Z,17.50
2022-10-15T11:42:13.254Z,17.50
2022-10-15T11:45:12.360Z,17.50
2022-10-15T11:47:50.209Z,17.50
2022-10-15T11:50:30.406Z,17.60
2022-10-15T11:53:31.622Z,17.70
2022-10-15T11:56:05.533Z,17.60
2022-10-15T11:58:42.467Z,17.60
2022-10-15T12:01:22.745Z,17.90
2022-10-15T12:03:56.803Z,18.10
2022-10-15T12:06:32.234Z,18.20
2022-10-15T12:09:04.444Z,18.50
2022-10-15T12:11:45.664Z,18.50
2022-10-15T12:14:33.168Z,18.30
2022-10-15T12:17:15.320Z,18.30
2022-10-15T12:19:49.580Z,18.10
2022-10-15T12:22:35.842Z,18.10
2022-10-15T12:25:05.434Z,18.10
2022-10-15T12:27:37.382Z,18.20
2022-10-15T12:30:24.246Z,18.50
2022-10-15T12:32:53.726Z,18.80
2022-10-15T12:35:33.194Z,18.90
2022-10-15T12:38:18.757Z,19.00
2022-10-15T12:40:48.587Z,18.70
2022-10-15T12:43:20.243Z,18.60
2022-10-15T12:45:55.457Z,18.50
2022-10-15T12:48:59.172Z,18.40
2022-10-15T12:51:32.186Z,18.20
2022-10-15T12:54:02.866Z,18.20
2022-10-15T12:56:42.238Z,18.00
2022-10-15T12:59:53.898Z,18.00
2022-10-15T13:02:48.532Z,17.90
2022-10-15T13:05:29.902Z,17.90
2022-10-15T13:08:00.596Z,18.00
2022-10-15T13:10:35.356Z,18.30
2022-10-15T13:13:09.535Z,18.60
2022-10-15T13:15:38.651Z,18.50
2022-10-15T13:18:10.468Z,18.50
2022-10-15T13:20:42.354Z,18.60
2022-10-15T13:23:29.670Z,18.50
2022-10-15T13:26:26.109Z,18.40
2022-10-15T13:29:02.798Z,18.20
2022-10-15T13:31:33.826Z,17.90
2022-10-15T13:34:10.336Z,17.90
2022-10-15T13:36:40.967Z,18.00
2022-10-15T13:39:26.388Z,18.20
2022-10-15T13:42:09.070Z,18.30
2022-10-15T13:44:38.365Z,18.20
2022-10-15T13:47:46.814Z,18.10
2022-10-15T13:50:21.410Z,18.10
2022-10-15T13:52:54.230Z,18.10
2022-10-15T13:55:28.928Z,18.20
2022-10-15T13:58:03.785Z,18.00
2022-10-15T14:00:35.118Z,17.90
2022-10-15T14:03:19.362Z,17.90
2022-10-15T14:05:50.301Z,17.90
2022-10-15T14:08:22.943Z,17.90
2022-10-15T14:10:53.401Z,17.80
2022-10-15T14:13:24.466Z,17.90
2022-10-15T14:16:14.966Z,17.80
2022-10-15T14:18:49.176Z,17.70
2022-10-15T14:21:20.821Z,17.60
2022-10-15T14:23:51.507Z,17.60
2022-10-15T14:26:26.501Z,17.50
2022-10-15T14:28:57.706Z,17.50
2022-10-15T14:31:35.034Z,17.50
2022-10-15T14:34:04.451Z,17.40
2022-10-15T14:36:42.372Z,17.40
2022-10-15T14:39:31.799Z,17.40
2022-10-15T14:42:02.966Z,17.50
2022-10-15T14:44:49.284Z,17.40
2022-10-15T14:47:24.177Z,17.40
2022-10-15T14:49:56.500Z,17.30
2022-10-15T14:52:29.235Z,17.30
2022-10-15T14:55:06.324Z,17.20
2022-10-15T14:57:42.871Z,17.10
2022-10-15T15:00:23.824Z,17.00
2022-10-15T15:02:58.492Z,16.90
2022-10-15T15:05:30.413Z,16.90
2022-10-15T15:08:03.073Z,16.70
2022-10-15T15:10:35.742Z,16.70
2022-10-15T15:13:04.927Z,16.70
2022-10-15T15:15:35.915Z,16.60
2022-10-15T15:18:05.225Z,16.50
2022-10-15T15:20:34.565Z,16.50
2022-10-15T15:23:06.226Z,16.40
2022-10-15T15:25:38.577Z,16.40
2022-10-15T15:28:14.036Z,16.30
2022-10-15T15:30:46.927Z,16.30
2022-10-15T15:33:17.247Z,16.30
2022-10-15T15:35:51.586Z,16.30
2022-10-15T15:38:21.159Z,16.30
2022-10-15T15:40:52.411Z,16.20
2022-10-15T15:43:21.573Z,16.20
2022-10-15T15:45:52.426Z,16.20
2022-10-15T15:48:25.032Z,16.10
2022-10-15T15:50:55.266Z,16.00
2022-10-15T15:53:24.421Z,16.00
2022-10-15T15:55:53.661Z,15.90
2022-10-15T15:58:22.720Z,15.90
2022-10-15T16:00:54.490Z,15.80
2022-10-15T16:03:23.710Z,15.70
2022-10-15T16:05:53.375Z,15.50
2022-10-15T16:08:24.503Z,15.30
2022-10-15T16:10:53.580Z,15.30
2022-10-15T16:13:23.089Z,15.30
2022-10-15T16:15:53.782Z,15.20
2022-10-15T16:18:22.814Z,15.10
2022-10-15T16:20:53.117Z,15.00
2022-10-15T16:23:23.015Z,14.90
2022-10-15T16:25:53.178Z,14.70
2022-10-15T16:28:23.181Z,14.60
2022-10-15T16:30:54.637Z,14.60
2022-10-15T16:33:24.554Z,14.50
2022-10-15T16:35:55.353Z,14.50
2022-10-15T16:38:24.507Z,14.50
2022-10-15T16:41:03.313Z,14.50
2022-10-15T16:43:33.209Z,14.50
2022-10-15T16:46:04.654Z,14.50
2022-10-15T16:48:35.425Z,14.60
2022-10-15T16:51:13.809Z,14.70
2022-10-15T16:53:45.069Z,14.80
2022-10-15T16:56:18.605Z,14.90
2022-10-15T16:58:51.478Z,14.90
2022-10-15T17:01:24.947Z,15.00
2022-10-15T17:03:56.409Z,15.00
2022-10-15T17:06:33.571Z,15.10
2022-10-15T17:09:05.112Z,15.10
2022-10-15T17:11:36.361Z,15.10
2022-10-15T17:14:08.720Z,15.20
2022-10-15T17:16:48.220Z,15.10
2022-10-15T17:19:21.281Z,15.10
2022-10-15T17:21:51.591Z,15.10
2022-10-15T17:24:21.520Z,15.20
2022-10-15T17:26:51.049Z,15.20
2022-10-15T17:29:24.709Z,15.20
2022-10-15T17:31:57.302Z,15.30
2022-10-15T17:34:28.406Z,15.30
2022-10-15T17:36:57.905Z,15.40
2022-10-15T17:39:27.045Z,15.30
2022-10-15T17:41:56.768Z,15.30
2022-10-15T17:44:26.429Z,15.40
2022-10-15T17:46:58.128Z,15.40
2022-10-15T17:49:31.196Z,15.40
2022-10-15T17:52:00.415Z,15.40
2022-10-15T17:54:30.214Z,15.40
2022-10-15T17:57:00.236Z,15.40
2022-10-15T17:59:30.966Z,15.40
2022-10-15T18:02:02.935Z,15.40
2022-10-15T18:04:36.409Z,15.30
2022-10-15T18:07:06.135Z,15.30
2022-10-15T18:09:35.808Z,15.30
2022-10-15T18:12:06.568Z,15.30
2022-10-15T18:14:36.701Z,15.30
2022-10-15T18:17:07.735Z,15.30
2022-10-15T18:19:39.402Z,15.20
2022-10-15T18:22:11.993Z,15.20
2022-10-15T18:24:41.732Z,14.90
2022-10-15T18:27:18.911Z,15.00
2022-10-15T18:29:48.479Z,15.00
2022-10-15T18:32:21.523Z,15.00
2022-10-15T18:34:50.983Z,15.00
2022-10-15T18:37:21.021Z,15.00
2022-10-15T18:39:51.254Z,15.00
2022-10-15T18:42:20.779Z,15.00
2022-10-15T18:44:50.994Z,15.10
2022-10-15T18:47:22.386Z,15.10
2022-10-15T18:49:53.441Z,15.10
2022-10-15T18:52:38.730Z,15.20
2022-10-15T18:55:13.245Z,15.20
2022-10-15T18:57:49.607Z,15.20
2022-10-15T19:00:30.241Z,15.10
2022-10-15T19:03:01.389Z,15.10
2022-10-15T19:05:36.191Z,15.10
2022-10-15T19:08:11.903Z,15.10
2022-10-15T19:10:44.237Z,15.10
2022-10-15T19:13:15.420Z,15.10
2022-10-15T19:15:48.331Z,15.10
2022-10-15T19:18:21.695Z,15.10
2022-10-15T19:20:52.761Z,15.10
2022-10-15T19:23:22.435Z,15.10
2022-10-15T19:25:53.582Z,15.10
2022-10-15T19:28:22.938Z,15.10
2022-10-15T19:31:00.816Z,15.10
2022-10-15T19:33:33.173Z,15.10
2022-10-15T19:36:08.396Z,15.00
2022-10-15T19:38:38.112Z,14.90
2022-10-15T19:41:07.675Z,14.80
2022-10-15T19:43:39.716Z,14.80
2022-10-15T19:46:10.473Z,14.80
2022-10-15T19:48:44.454Z,14.70
2022-10-15T19:51:13.923Z,14.70
2022-10-15T19:53:45.475Z,14.70
2022-10-15T19:56:14.602Z,14.70
2022-10-15T19:58:44.483Z,14.60
2022-10-15T20:01:14.497Z,14.60
2022-10-15T20:03:47.136Z,14.50
2022-10-15T20:06:18.161Z,14.50
2022-10-15T20:08:47.376Z,14.50
2022-10-15T20:11:16.886Z,14.50
2022-10-15T20:13:49.873Z,14.50
2022-10-15T20:16:22.276Z,14.60
2022-10-15T20:18:54.183Z,14.60
2022-10-15T20:21:24.574Z,14.60
2022-10-15T20:24:02.606Z,14.50
2022-10-15T20:26:33.070Z,14.50
2022-10-15T20:29:02.891Z,14.60
2022-10-15T20:31:35.333Z,14.60
2022-10-15T20:34:06.403Z,14.50
2022-10-15T20:36:41.627Z,14.40
2022-10-15T20:39:21.276Z,14.40
2022-10-15T20:41:55.718Z,14.40
2022-10-15T20:44:26.124Z,14.50
2022-10-15T20:47:02.230Z,14.40
2022-10-15T20:49:37.653Z,14.50
2022-10-15T20:52:07.666Z,14.40
2022-10-15T20:54:37.248Z,14.40
2022-10-15T20:57:06.955Z,14.40
2022-10-15T20:59:36.594Z,14.40
2022-10-15T21:02:05.835Z,14.50
2022-10-15T21:04:36.877Z,14.50
2022-10-15T21:07:05.890Z,14.50
2022-10-15T21:09:36.186Z,14.50
2022-10-15T21:12:06.253Z,14.40
2022-10-15T21:14:40.404Z,14.50
2022-10-15T21:17:09.446Z,14.50
2022-10-15T21:19:40.077Z,14.50
2022-10-15T21:22:09.075Z,14.50
2022-10-15T21:24:38.955Z,14.50
2022-10-15T21:27:10.418Z,14.50
2022-10-15T21:29:39.489Z,14.40
2022-10-15T21:32:08.575Z,14.40
2022-10-15T21:34:49.412Z,14.50
2022-10-15T21:37:18.561Z,14.40
2022-10-15T21:39:47.534Z,14.40
2022-10-15T21:42:16.801Z,14.40
2022-10-15T21:45:17.441Z,14.40
2022-10-15T21:48:19.273Z,14.40
2022-10-15T21:50:50.874Z,14.40
2022-10-15T21:53:19.958Z,14.30
2022-10-15T21:55:55.054Z,14.40
2022-10-15T21:58:24.875Z,14.40
2022-10-15T22:00:54.215Z,14.40
2022-10-15T22:03:24.187Z,14.40
2022-10-15T22:05:55.987Z,14.50
2022-10-15T22:08:24.966Z,14.40
2022-10-15T22:10:54.147Z,14.40
2022-10-15T22:13:23.317Z,14.40
2022-10-15T22:15:53.264Z,14.40
2022-10-15T22:18:23.287Z,14.40
2022-10-15T22:20:55.090Z,14.40
2022-10-15T22:23:26.978Z,14.30
2022-10-15T22:26:00.708Z,14.30
2022-10-15T22:28:30.732Z,14.30
2022-10-15T22:31:05.204Z,14.30
2022-10-15T22:33:35.927Z,14.40
2022-10-15T22:36:13.766Z,14.40
2022-10-15T22:38:43.922Z,14.40
2022-10-15T22:41:14.269Z,14.40
2022-10-15T22:43:43.484Z,14.40
2022-10-15T22:46:14.004Z,14.40
2022-10-15T22:48:44.049Z,14.40
2022-10-15T22:51:15.505Z,14.40
2022-10-15T22:53:44.964Z,14.30
2022-10-15T22:56:15.924Z,14.40
2022-10-15T22:58:45.088Z,14.30
2022-10-15T23:01:15.307Z,14.30
2022-10-15T23:03:46.409Z,14.30
2022-10-15T23:06:17.648Z,14.20
2022-10-15T23:08:47.687Z,14.20
2022-10-15T23:11:18.774Z,14.10
2022-10-15T23:13:49.078Z,14.10
2022-10-15T23:16:19.568Z,14.10
2022-10-15T23:18:53.145Z,14.10
2022-10-15T23:21:30.406Z,14.10
2022-10-15T23:23:59.686Z,14.10
2022-10-15T23:29:05.337Z,14.00
2022-10-15T23:31:36.208Z,14.10
2022-10-15T23:34:06.853Z,14.10
2022-10-15T23:36:38.898Z,14.10
2022-10-15T23:39:08.629Z,14.10
2022-10-15T23:41:38.438Z,14.10
2022-10-15T23:44:07.568Z,14.10
2022-10-15T23:46:36.580Z,14.10
2022-10-15T23:49:06.041Z,14.10
2022-10-15T23:51:35.990Z,14.10
2022-10-15T23:54:14.305Z,14.10
2022-10-15T23:56:43.805Z,14.00
2022-10-15T23:59:13.680Z,14.00
